Terminal Aerodrome Forecast
Issued by NWS

Home | Current Version | Previous Version | Text Only | Print | Product List | Glossary On
Versions: 1 2 3 4 5 6 7 8 9 10 11 12 13 14
000
FTUS43 KPAH 010520
TAFOWB
TAF
KOWB 010520Z 0106/0206 12003KT P6SM FEW050 SCT100
     FM011400 22006KT P6SM SCT050 BKN250
     FM011700 26005KT P6SM VCTS SCT040CB BKN100 PROB30 0118/0124 3SM
      TSRA BKN030CB
     FM020000 VRB05KT P6SM SCT040 BKN100=

USA.gov is the U.S. government's official web portal to all federal, state and local government web resources and services.